sensor_id;sensor_type;location;lat;lon;timestamp;P1;durP1;ratioP1;P2;durP2;ratioP2
12348;SDS011;5974;42.710;27.258;2023-04-01T00:01:40;10.03;;;6.57;;
12348;SDS011;5974;42.710;27.258;2023-04-01T00:04:07;7.53;;;6.73;;
12348;SDS011;5974;42.710;27.258;2023-04-01T00:06:34;10.57;;;6.33;;
12348;SDS011;5974;42.710;27.258;2023-04-01T00:09:03;8.17;;;5.90;;
12348;SDS011;5974;42.710;27.258;2023-04-01T00:11:30;9.20;;;6.07;;
12348;SDS011;5974;42.710;27.258;2023-04-01T00:13:56;9.40;;;5.80;;
12348;SDS011;5974;42.710;27.258;2023-04-01T00:16:23;8.27;;;5.60;;
12348;SDS011;5974;42.710;27.258;2023-04-01T00:18:50;9.17;;;5.63;;
12348;SDS011;5974;42.710;27.258;2023-04-01T00:21:18;7.03;;;5.67;;
12348;SDS011;5974;42.710;27.258;2023-04-01T00:23:45;7.33;;;5.50;;
12348;SDS011;5974;42.710;27.258;2023-04-01T00:26:13;9.03;;;5.90;;
12348;SDS011;5974;42.710;27.258;2023-04-01T00:28:44;8.10;;;5.53;;
12348;SDS011;5974;42.710;27.258;2023-04-01T00:31:11;7.70;;;5.50;;
12348;SDS011;5974;42.710;27.258;2023-04-01T00:33:38;6.23;;;5.47;;
12348;SDS011;5974;42.710;27.258;2023-04-01T00:36:07;9.90;;;5.40;;
12348;SDS011;5974;42.710;27.258;2023-04-01T00:38:35;7.73;;;5.43;;
12348;SDS011;5974;42.710;27.258;2023-04-01T00:41:03;6.87;;;4.60;;
12348;SDS011;5974;42.710;27.258;2023-04-01T00:43:32;7.53;;;5.30;;
12348;SDS011;5974;42.710;27.258;2023-04-01T00:46:00;6.40;;;4.63;;
12348;SDS011;5974;42.710;27.258;2023-04-01T00:48:27;6.10;;;4.67;;
12348;SDS011;5974;42.710;27.258;2023-04-01T00:50:58;6.23;;;4.50;;
12348;SDS011;5974;42.710;27.258;2023-04-01T00:53:28;9.13;;;5.50;;
12348;SDS011;5974;42.710;27.258;2023-04-01T00:55:59;6.13;;;4.30;;
12348;SDS011;5974;42.710;27.258;2023-04-01T00:58:29;7.77;;;5.40;;
12348;SDS011;5974;42.710;27.258;2023-04-01T01:01:01;8.03;;;5.70;;
12348;SDS011;5974;42.710;27.258;2023-04-01T01:03:28;6.87;;;5.60;;
12348;SDS011;5974;42.710;27.258;2023-04-01T01:06:08;10.30;;;5.33;;
12348;SDS011;5974;42.710;27.258;2023-04-01T01:08:57;8.70;;;5.93;;
12348;SDS011;5974;42.710;27.258;2023-04-01T01:11:37;7.10;;;5.83;;
12348;SDS011;5974;42.710;27.258;2023-04-01T01:14:12;8.57;;;5.00;;
12348;SDS011;5974;42.710;27.258;2023-04-01T01:16:48;10.87;;;6.87;;
12348;SDS011;5974;42.710;27.258;2023-04-01T01:19:28;10.17;;;5.53;;
12348;SDS011;5974;42.710;27.258;2023-04-01T01:22:32;9.10;;;5.63;;
12348;SDS011;5974;42.710;27.258;2023-04-01T01:25:18;9.77;;;5.90;;
12348;SDS011;5974;42.710;27.258;2023-04-01T01:28:11;9.20;;;6.43;;
12348;SDS011;5974;42.710;27.258;2023-04-01T01:30:55;11.63;;;7.60;;
12348;SDS011;5974;42.710;27.258;2023-04-01T01:33:41;12.10;;;8.70;;
12348;SDS011;5974;42.710;27.258;2023-04-01T01:36:18;10.87;;;7.60;;
12348;SDS011;5974;42.710;27.258;2023-04-01T01:38:47;10.83;;;7.43;;
12348;SDS011;5974;42.710;27.258;2023-04-01T01:41:16;7.73;;;6.03;;
12348;SDS011;5974;42.710;27.258;2023-04-01T01:43:46;6.63;;;5.27;;
12348;SDS011;5974;42.710;27.258;2023-04-01T01:46:17;11.17;;;5.90;;
12348;SDS011;5974;42.710;27.258;2023-04-01T01:48:47;8.53;;;5.60;;
12348;SDS011;5974;42.710;27.258;2023-04-01T01:51:18;6.80;;;5.17;;
12348;SDS011;5974;42.710;27.258;2023-04-01T01:53:46;6.77;;;5.13;;
12348;SDS011;5974;42.710;27.258;2023-04-01T01:56:13;10.00;;;4.83;;
12348;SDS011;5974;42.710;27.258;2023-04-01T01:58:41;8.43;;;4.80;;
12348;SDS011;5974;42.710;27.258;2023-04-01T02:01:11;8.37;;;4.67;;
12348;SDS011;5974;42.710;27.258;2023-04-01T02:03:40;7.73;;;4.60;;
12348;SDS011;5974;42.710;27.258;2023-04-01T02:06:11;8.97;;;4.70;;
12348;SDS011;5974;42.710;27.258;2023-04-01T02:08:43;6.33;;;4.40;;
12348;SDS011;5974;42.710;27.258;2023-04-01T02:11:15;10.57;;;5.30;;
12348;SDS011;5974;42.710;27.258;2023-04-01T02:13:45;7.60;;;4.70;;
12348;SDS011;5974;42.710;27.258;2023-04-01T02:16:18;11.60;;;4.70;;
12348;SDS011;5974;42.710;27.258;2023-04-01T02:18:49;7.77;;;4.50;;
12348;SDS011;5974;42.710;27.258;2023-04-01T02:21:20;4.87;;;4.37;;
12348;SDS011;5974;42.710;27.258;2023-04-01T02:23:50;8.37;;;4.10;;
12348;SDS011;5974;42.710;27.258;2023-04-01T02:26:20;5.70;;;4.33;;
12348;SDS011;5974;42.710;27.258;2023-04-01T02:28:48;5.80;;;3.97;;
12348;SDS011;5974;42.710;27.258;2023-04-01T02:31:17;7.80;;;4.37;;
12348;SDS011;5974;42.710;27.258;2023-04-01T02:33:44;7.00;;;4.13;;
12348;SDS011;5974;42.710;27.258;2023-04-01T02:36:12;5.63;;;4.10;;
12348;SDS011;5974;42.710;27.258;2023-04-01T02:38:40;5.67;;;3.63;;
12348;SDS011;5974;42.710;27.258;2023-04-01T02:41:10;7.00;;;4.20;;
12348;SDS011;5974;42.710;27.258;2023-04-01T02:43:37;7.07;;;3.87;;
12348;SDS011;5974;42.710;27.258;2023-04-01T02:46:04;7.53;;;4.13;;
12348;SDS011;5974;42.710;27.258;2023-04-01T02:48:31;5.90;;;4.00;;
12348;SDS011;5974;42.710;27.258;2023-04-01T02:50:58;8.03;;;4.30;;
12348;SDS011;5974;42.710;27.258;2023-04-01T02:53:25;4.83;;;3.87;;
12348;SDS011;5974;42.710;27.258;2023-04-01T02:55:52;5.57;;;3.83;;
12348;SDS011;5974;42.710;27.258;2023-04-01T02:58:20;8.80;;;4.70;;
12348;SDS011;5974;42.710;27.258;2023-04-01T03:00:47;5.00;;;4.50;;
12348;SDS011;5974;42.710;27.258;2023-04-01T03:03:14;6.60;;;4.33;;
12348;SDS011;5974;42.710;27.258;2023-04-01T03:05:41;6.70;;;4.37;;
12348;SDS011;5974;42.710;27.258;2023-04-01T03:08:08;7.30;;;4.90;;
12348;SDS011;5974;42.710;27.258;2023-04-01T03:10:35;7.33;;;4.47;;
12348;SDS011;5974;42.710;27.258;2023-04-01T03:13:02;8.83;;;4.83;;
12348;SDS011;5974;42.710;27.258;2023-04-01T03:15:30;5.80;;;4.60;;
12348;SDS011;5974;42.710;27.258;2023-04-01T03:17:57;5.23;;;4.67;;
12348;SDS011;5974;42.710;27.258;2023-04-01T03:20:24;4.83;;;4.23;;
12348;SDS011;5974;42.710;27.258;2023-04-01T03:22:51;5.03;;;4.27;;
12348;SDS011;5974;42.710;27.258;2023-04-01T03:25:18;6.07;;;4.60;;
12348;SDS011;5974;42.710;27.258;2023-04-01T03:27:45;6.93;;;5.00;;
12348;SDS011;5974;42.710;27.258;2023-04-01T03:30:12;6.80;;;4.80;;
12348;SDS011;5974;42.710;27.258;2023-04-01T03:32:40;7.40;;;5.00;;
12348;SDS011;5974;42.710;27.258;2023-04-01T03:35:07;6.10;;;5.03;;
12348;SDS011;5974;42.710;27.258;2023-04-01T03:37:35;7.57;;;5.00;;
12348;SDS011;5974;42.710;27.258;2023-04-01T03:40:02;6.77;;;4.40;;
12348;SDS011;5974;42.710;27.258;2023-04-01T03:42:30;8.10;;;4.53;;
12348;SDS011;5974;42.710;27.258;2023-04-01T03:44:57;6.13;;;4.00;;
12348;SDS011;5974;42.710;27.258;2023-04-01T03:47:24;8.77;;;4.73;;
12348;SDS011;5974;42.710;27.258;2023-04-01T03:49:53;6.80;;;4.60;;
12348;SDS011;5974;42.710;27.258;2023-04-01T03:52:19;10.50;;;5.97;;
12348;SDS011;5974;42.710;27.258;2023-04-01T03:54:46;7.67;;;5.47;;
12348;SDS011;5974;42.710;27.258;2023-04-01T03:57:13;11.40;;;6.20;;
12348;SDS011;5974;42.710;27.258;2023-04-01T03:59:40;10.53;;;6.20;;
12348;SDS011;5974;42.710;27.258;2023-04-01T04:02:07;8.97;;;6.83;;
12348;SDS011;5974;42.710;27.258;2023-04-01T04:04:34;18.40;;;7.03;;
12348;SDS011;5974;42.710;27.258;2023-04-01T04:07:02;12.40;;;6.10;;
12348;SDS011;5974;42.710;27.258;2023-04-01T04:09:29;9.80;;;6.40;;
12348;SDS011;5974;42.710;27.258;2023-04-01T04:11:56;9.50;;;5.70;;
12348;SDS011;5974;42.710;27.258;2023-04-01T04:14:24;7.40;;;5.10;;
12348;SDS011;5974;42.710;27.258;2023-04-01T04:16:50;8.70;;;6.20;;
12348;SDS011;5974;42.710;27.258;2023-04-01T04:19:17;9.17;;;6.50;;
12348;SDS011;5974;42.710;27.258;2023-04-01T04:21:44;14.13;;;9.97;;
12348;SDS011;5974;42.710;27.258;2023-04-01T04:24:13;21.77;;;13.17;;
12348;SDS011;5974;42.710;27.258;2023-04-01T04:26:40;24.40;;;14.07;;
12348;SDS011;5974;42.710;27.258;2023-04-01T04:29:06;21.53;;;13.33;;
12348;SDS011;5974;42.710;27.258;2023-04-01T04:31:33;20.53;;;13.97;;
12348;SDS011;5974;42.710;27.258;2023-04-01T04:34:00;26.90;;;15.67;;
12348;SDS011;5974;42.710;27.258;2023-04-01T04:36:27;20.40;;;14.63;;
12348;SDS011;5974;42.710;27.258;2023-04-01T04:38:54;25.00;;;14.70;;
12348;SDS011;5974;42.710;27.258;2023-04-01T04:41:24;18.23;;;13.43;;
12348;SDS011;5974;42.710;27.258;2023-04-01T04:43:51;18.73;;;11.97;;
12348;SDS011;5974;42.710;27.258;2023-04-01T04:46:19;15.47;;;10.40;;
12348;SDS011;5974;42.710;27.258;2023-04-01T04:48:46;19.23;;;13.57;;
12348;SDS011;5974;42.710;27.258;2023-04-01T04:51:14;22.43;;;15.30;;
12348;SDS011;5974;42.710;27.258;2023-04-01T04:53:42;23.43;;;17.00;;
12348;SDS011;5974;42.710;27.258;2023-04-01T04:56:09;23.67;;;16.67;;
12348;SDS011;5974;42.710;27.258;2023-04-01T04:58:38;25.53;;;18.53;;
12348;SDS011;5974;42.710;27.258;2023-04-01T05:01:06;24.77;;;18.87;;
12348;SDS011;5974;42.710;27.258;2023-04-01T05:03:34;28.03;;;19.23;;
12348;SDS011;5974;42.710;27.258;2023-04-01T05:06:01;28.10;;;18.23;;
12348;SDS011;5974;42.710;27.258;2023-04-01T05:08:28;19.20;;;16.20;;
12348;SDS011;5974;42.710;27.258;2023-04-01T05:10:55;30.77;;;19.13;;
12348;SDS011;5974;42.710;27.258;2023-04-01T05:13:22;22.37;;;16.57;;
12348;SDS011;5974;42.710;27.258;2023-04-01T05:15:50;25.50;;;15.13;;
12348;SDS011;5974;42.710;27.258;2023-04-01T05:18:17;17.77;;;14.90;;
12348;SDS011;5974;42.710;27.258;2023-04-01T05:20:47;18.20;;;13.60;;
12348;SDS011;5974;42.710;27.258;2023-04-01T05:23:14;19.13;;;11.07;;
12348;SDS011;5974;42.710;27.258;2023-04-01T05:25:41;17.27;;;11.30;;
12348;SDS011;5974;42.710;27.258;2023-04-01T05:28:10;12.50;;;9.10;;
12348;SDS011;5974;42.710;27.258;2023-04-01T05:30:39;20.27;;;13.87;;
12348;SDS011;5974;42.710;27.258;2023-04-01T05:33:08;10.63;;;8.27;;
12348;SDS011;5974;42.710;27.258;2023-04-01T05:35:36;12.60;;;8.60;;
12348;SDS011;5974;42.710;27.258;2023-04-01T05:38:03;9.00;;;6.73;;
12348;SDS011;5974;42.710;27.258;2023-04-01T05:40:31;7.27;;;6.17;;
12348;SDS011;5974;42.710;27.258;2023-04-01T05:42:58;13.00;;;8.67;;
12348;SDS011;5974;42.710;27.258;2023-04-01T05:45:25;13.87;;;11.00;;
12348;SDS011;5974;42.710;27.258;2023-04-01T05:47:52;17.87;;;10.73;;
12348;SDS011;5974;42.710;27.258;2023-04-01T05:50:21;20.67;;;15.77;;
12348;SDS011;5974;42.710;27.258;2023-04-01T05:52:48;46.73;;;31.77;;
12348;SDS011;5974;42.710;27.258;2023-04-01T05:55:15;36.20;;;26.50;;
12348;SDS011;5974;42.710;27.258;2023-04-01T05:57:42;26.73;;;15.63;;
12348;SDS011;5974;42.710;27.258;2023-04-01T06:00:11;20.43;;;14.50;;
12348;SDS011;5974;42.710;27.258;2023-04-01T06:02:39;37.27;;;25.40;;
12348;SDS011;5974;42.710;27.258;2023-04-01T06:05:11;22.80;;;16.47;;
12348;SDS011;5974;42.710;27.258;2023-04-01T06:07:42;20.77;;;14.93;;
12348;SDS011;5974;42.710;27.258;2023-04-01T06:10:11;20.40;;;15.70;;
12348;SDS011;5974;42.710;27.258;2023-04-01T06:12:48;29.00;;;24.13;;
12348;SDS011;5974;42.710;27.258;2023-04-01T06:15:25;36.47;;;23.97;;
12348;SDS011;5974;42.710;27.258;2023-04-01T06:21:08;26.60;;;19.87;;
12348;SDS011;5974;42.710;27.258;2023-04-01T06:23:57;34.33;;;23.53;;
12348;SDS011;5974;42.710;27.258;2023-04-01T06:26:37;25.47;;;20.13;;
12348;SDS011;5974;42.710;27.258;2023-04-01T06:32:15;27.57;;;19.23;;
12348;SDS011;5974;42.710;27.258;2023-04-01T06:35:03;17.57;;;11.40;;
12348;SDS011;5974;42.710;27.258;2023-04-01T06:37:46;22.23;;;11.20;;
12348;SDS011;5974;42.710;27.258;2023-04-01T06:43:36;19.17;;;8.90;;
12348;SDS011;5974;42.710;27.258;2023-04-01T06:46:12;14.27;;;7.70;;
12348;SDS011;5974;42.710;27.258;2023-04-01T06:48:53;11.60;;;7.10;;
12348;SDS011;5974;42.710;27.258;2023-04-01T06:51:33;16.83;;;8.37;;
12348;SDS011;5974;42.710;27.258;2023-04-01T06:54:09;11.47;;;6.80;;
12348;SDS011;5974;42.710;27.258;2023-04-01T06:56:42;10.33;;;6.20;;
12348;SDS011;5974;42.710;27.258;2023-04-01T06:59:12;11.17;;;6.80;;
12348;SDS011;5974;42.710;27.258;2023-04-01T07:01:42;10.40;;;5.50;;
12348;SDS011;5974;42.710;27.258;2023-04-01T07:04:13;10.67;;;6.07;;
12348;SDS011;5974;42.710;27.258;2023-04-01T07:06:44;11.47;;;6.20;;
12348;SDS011;5974;42.710;27.258;2023-04-01T07:09:16;10.77;;;4.73;;
12348;SDS011;5974;42.710;27.258;2023-04-01T07:11:47;10.17;;;5.07;;
12348;SDS011;5974;42.710;27.258;2023-04-01T07:14:17;10.53;;;5.07;;
12348;SDS011;5974;42.710;27.258;2023-04-01T07:16:51;9.70;;;4.50;;
12348;SDS011;5974;42.710;27.258;2023-04-01T07:19:22;16.03;;;7.33;;
12348;SDS011;5974;42.710;27.258;2023-04-01T07:21:54;8.83;;;4.57;;
12348;SDS011;5974;42.710;27.258;2023-04-01T07:24:26;8.70;;;4.97;;
12348;SDS011;5974;42.710;27.258;2023-04-01T07:26:57;12.53;;;6.77;;
12348;SDS011;5974;42.710;27.258;2023-04-01T07:29:25;7.93;;;4.27;;
12348;SDS011;5974;42.710;27.258;2023-04-01T07:34:50;11.47;;;5.20;;
12348;SDS011;5974;42.710;27.258;2023-04-01T07:37:26;9.60;;;3.87;;
12348;SDS011;5974;42.710;27.258;2023-04-01T07:40:00;12.23;;;6.67;;
12348;SDS011;5974;42.710;27.258;2023-04-01T07:42:38;13.43;;;4.50;;
12348;SDS011;5974;42.710;27.258;2023-04-01T07:45:15;8.67;;;4.50;;
12348;SDS011;5974;42.710;27.258;2023-04-01T07:47:51;10.87;;;5.20;;
12348;SDS011;5974;42.710;27.258;2023-04-01T07:50:32;13.70;;;5.80;;
12348;SDS011;5974;42.710;27.258;2023-04-01T07:53:07;13.73;;;5.80;;
12348;SDS011;5974;42.710;27.258;2023-04-01T07:55:41;13.40;;;6.00;;
12348;SDS011;5974;42.710;27.258;2023-04-01T07:58:17;11.80;;;6.27;;
12348;SDS011;5974;42.710;27.258;2023-04-01T08:00:56;12.67;;;6.57;;
12348;SDS011;5974;42.710;27.258;2023-04-01T08:03:37;11.03;;;5.07;;
12348;SDS011;5974;42.710;27.258;2023-04-01T08:06:18;8.97;;;4.20;;
12348;SDS011;5974;42.710;27.258;2023-04-01T08:08:54;7.60;;;4.80;;
12348;SDS011;5974;42.710;27.258;2023-04-01T08:11:31;7.97;;;4.00;;
12348;SDS011;5974;42.710;27.258;2023-04-01T08:14:11;13.17;;;4.33;;
12348;SDS011;5974;42.710;27.258;2023-04-01T08:16:45;8.73;;;4.50;;
12348;SDS011;5974;42.710;27.258;2023-04-01T08:19:21;6.53;;;4.60;;
12348;SDS011;5974;42.710;27.258;2023-04-01T08:21:57;11.27;;;5.23;;
12348;SDS011;5974;42.710;27.258;2023-04-01T08:24:33;10.57;;;4.80;;
12348;SDS011;5974;42.710;27.258;2023-04-01T08:27:06;8.03;;;4.63;;
12348;SDS011;5974;42.710;27.258;2023-04-01T08:29:41;12.57;;;5.30;;
12348;SDS011;5974;42.710;27.258;2023-04-01T08:32:12;10.20;;;4.30;;
12348;SDS011;5974;42.710;27.258;2023-04-01T08:34:45;11.13;;;5.00;;
12348;SDS011;5974;42.710;27.258;2023-04-01T08:37:17;11.13;;;5.70;;
12348;SDS011;5974;42.710;27.258;2023-04-01T08:39:50;10.03;;;5.27;;
12348;SDS011;5974;42.710;27.258;2023-04-01T08:45:25;10.97;;;6.00;;
12348;SDS011;5974;42.710;27.258;2023-04-01T08:48:11;10.77;;;4.90;;
12348;SDS011;5974;42.710;27.258;2023-04-01T08:54:05;10.53;;;4.30;;
12348;SDS011;5974;42.710;27.258;2023-04-01T08:56:46;15.87;;;4.73;;
12348;SDS011;5974;42.710;27.258;2023-04-01T08:59:23;7.43;;;4.20;;
12348;SDS011;5974;42.710;27.258;2023-04-01T09:05:17;13.70;;;5.07;;
12348;SDS011;5974;42.710;27.258;2023-04-01T09:07:57;8.90;;;4.60;;
12348;SDS011;5974;42.710;27.258;2023-04-01T09:13:29;8.73;;;3.77;;
12348;SDS011;5974;42.710;27.258;2023-04-01T09:19:19;11.10;;;3.53;;
12348;SDS011;5974;42.710;27.258;2023-04-01T09:25:05;14.57;;;5.50;;
12348;SDS011;5974;42.710;27.258;2023-04-01T09:27:43;9.80;;;4.80;;
12348;SDS011;5974;42.710;27.258;2023-04-01T09:30:27;11.77;;;4.60;;
12348;SDS011;5974;42.710;27.258;2023-04-01T09:36:05;8.93;;;4.13;;
12348;SDS011;5974;42.710;27.258;2023-04-01T09:38:42;9.27;;;4.43;;
12348;SDS011;5974;42.710;27.258;2023-04-01T09:41:23;6.80;;;3.70;;
12348;SDS011;5974;42.710;27.258;2023-04-01T09:44:08;8.07;;;4.80;;
12348;SDS011;5974;42.710;27.258;2023-04-01T09:46:45;7.37;;;3.70;;
12348;SDS011;5974;42.710;27.258;2023-04-01T09:52:26;7.50;;;4.10;;
12348;SDS011;5974;42.710;27.258;2023-04-01T09:55:14;7.30;;;4.13;;
12348;SDS011;5974;42.710;27.258;2023-04-01T10:01:25;11.17;;;4.20;;
12348;SDS011;5974;42.710;27.258;2023-04-01T10:07:35;10.40;;;4.00;;
12348;SDS011;5974;42.710;27.258;2023-04-01T10:10:27;11.03;;;4.20;;
12348;SDS011;5974;42.710;27.258;2023-04-01T10:16:43;15.53;;;8.47;;
12348;SDS011;5974;42.710;27.258;2023-04-01T10:19:55;28.87;;;19.13;;
12348;SDS011;5974;42.710;27.258;2023-04-01T10:22:46;12.57;;;5.50;;
12348;SDS011;5974;42.710;27.258;2023-04-01T10:28:34;9.23;;;4.20;;
12348;SDS011;5974;42.710;27.258;2023-04-01T10:31:24;13.33;;;4.70;;
12348;SDS011;5974;42.710;27.258;2023-04-01T10:37:10;13.70;;;4.30;;
12348;SDS011;5974;42.710;27.258;2023-04-01T10:40:07;9.07;;;4.67;;
12348;SDS011;5974;42.710;27.258;2023-04-01T10:43:06;9.93;;;4.67;;
12348;SDS011;5974;42.710;27.258;2023-04-01T10:46:09;7.30;;;3.60;;
12348;SDS011;5974;42.710;27.258;2023-04-01T10:52:25;9.37;;;4.00;;
12348;SDS011;5974;42.710;27.258;2023-04-01T10:55:34;10.47;;;4.37;;
12348;SDS011;5974;42.710;27.258;2023-04-01T10:58:17;8.13;;;3.87;;
12348;SDS011;5974;42.710;27.258;2023-04-01T11:01:15;8.37;;;3.20;;
12348;SDS011;5974;42.710;27.258;2023-04-01T11:13:57;11.37;;;3.43;;
12348;SDS011;5974;42.710;27.258;2023-04-01T11:16:57;10.87;;;3.93;;
12348;SDS011;5974;42.710;27.258;2023-04-01T11:19:56;8.63;;;3.67;;
12348;SDS011;5974;42.710;27.258;2023-04-01T11:22:50;9.77;;;4.13;;
12348;SDS011;5974;42.710;27.258;2023-04-01T11:25:33;14.27;;;5.33;;
12348;SDS011;5974;42.710;27.258;2023-04-01T11:31:24;13.23;;;4.57;;
12348;SDS011;5974;42.710;27.258;2023-04-01T11:34:02;9.90;;;4.10;;
12348;SDS011;5974;42.710;27.258;2023-04-01T11:36:41;10.60;;;4.30;;
12348;SDS011;5974;42.710;27.258;2023-04-01T11:39:20;12.37;;;4.63;;
12348;SDS011;5974;42.710;27.258;2023-04-01T11:41:56;10.57;;;5.00;;
12348;SDS011;5974;42.710;27.258;2023-04-01T11:44:39;14.77;;;4.80;;
12348;SDS011;5974;42.710;27.258;2023-04-01T11:47:15;16.57;;;5.20;;
12348;SDS011;5974;42.710;27.258;2023-04-01T11:49:57;13.30;;;5.93;;
12348;SDS011;5974;42.710;27.258;2023-04-01T11:52:42;16.77;;;5.97;;
12348;SDS011;5974;42.710;27.258;2023-04-01T11:55:24;11.00;;;4.93;;
12348;SDS011;5974;42.710;27.258;2023-04-01T11:58:03;16.30;;;5.67;;
12348;SDS011;5974;42.710;27.258;2023-04-01T12:00:58;13.57;;;5.40;;
12348;SDS011;5974;42.710;27.258;2023-04-01T12:06:41;14.87;;;5.00;;
12348;SDS011;5974;42.710;27.258;2023-04-01T12:09:16;15.03;;;5.80;;
12348;SDS011;5974;42.710;27.258;2023-04-01T12:11:51;12.47;;;4.40;;
12348;SDS011;5974;42.710;27.258;2023-04-01T12:14:27;14.17;;;4.30;;
12348;SDS011;5974;42.710;27.258;2023-04-01T12:17:03;13.77;;;4.10;;
12348;SDS011;5974;42.710;27.258;2023-04-01T12:19:38;16.40;;;5.43;;
12348;SDS011;5974;42.710;27.258;2023-04-01T12:22:21;14.07;;;4.83;;
12348;SDS011;5974;42.710;27.258;2023-04-01T12:25:03;11.77;;;4.37;;
12348;SDS011;5974;42.710;27.258;2023-04-01T12:27:48;14.67;;;5.90;;
12348;SDS011;5974;42.710;27.258;2023-04-01T12:30:32;14.77;;;5.90;;
12348;SDS011;5974;42.710;27.258;2023-04-01T12:33:18;15.60;;;6.27;;
12348;SDS011;5974;42.710;27.258;2023-04-01T12:36:05;14.93;;;5.57;;
12348;SDS011;5974;42.710;27.258;2023-04-01T12:38:43;18.60;;;6.03;;
12348;SDS011;5974;42.710;27.258;2023-04-01T12:41:31;13.27;;;4.90;;
12348;SDS011;5974;42.710;27.258;2023-04-01T12:44:12;13.13;;;5.57;;
12348;SDS011;5974;42.710;27.258;2023-04-01T12:46:57;14.70;;;5.70;;
12348;SDS011;5974;42.710;27.258;2023-04-01T12:49:49;16.90;;;8.23;;
12348;SDS011;5974;42.710;27.258;2023-04-01T12:52:39;13.17;;;5.03;;
12348;SDS011;5974;42.710;27.258;2023-04-01T12:55:27;14.17;;;5.30;;
12348;SDS011;5974;42.710;27.258;2023-04-01T12:58:15;16.00;;;5.40;;
12348;SDS011;5974;42.710;27.258;2023-04-01T13:01:25;15.80;;;5.47;;
12348;SDS011;5974;42.710;27.258;2023-04-01T13:07:00;18.53;;;5.17;;
12348;SDS011;5974;42.710;27.258;2023-04-01T13:09:50;15.33;;;4.93;;
12348;SDS011;5974;42.710;27.258;2023-04-01T13:12:28;17.80;;;5.37;;
12348;SDS011;5974;42.710;27.258;2023-04-01T13:15:06;15.70;;;5.03;;
12348;SDS011;5974;42.710;27.258;2023-04-01T13:17:41;19.00;;;4.70;;
12348;SDS011;5974;42.710;27.258;2023-04-01T13:20:19;19.17;;;5.37;;
12348;SDS011;5974;42.710;27.258;2023-04-01T13:22:59;16.37;;;4.90;;
12348;SDS011;5974;42.710;27.258;2023-04-01T13:25:36;21.23;;;5.43;;
12348;SDS011;5974;42.710;27.258;2023-04-01T13:28:12;16.73;;;5.10;;
12348;SDS011;5974;42.710;27.258;2023-04-01T13:30:47;24.10;;;7.53;;
12348;SDS011;5974;42.710;27.258;2023-04-01T13:33:21;21.53;;;7.60;;
12348;SDS011;5974;42.710;27.258;2023-04-01T13:35:59;23.00;;;9.10;;
12348;SDS011;5974;42.710;27.258;2023-04-01T13:38:41;19.30;;;7.17;;
12348;SDS011;5974;42.710;27.258;2023-04-01T13:41:38;18.83;;;10.20;;
12348;SDS011;5974;42.710;27.258;2023-04-01T13:44:16;25.47;;;8.70;;
12348;SDS011;5974;42.710;27.258;2023-04-01T13:46:53;20.13;;;8.13;;
12348;SDS011;5974;42.710;27.258;2023-04-01T13:49:41;16.40;;;5.70;;
12348;SDS011;5974;42.710;27.258;2023-04-01T13:52:21;16.90;;;6.83;;
12348;SDS011;5974;42.710;27.258;2023-04-01T13:55:14;19.37;;;4.93;;
12348;SDS011;5974;42.710;27.258;2023-04-01T13:57:58;19.70;;;6.17;;
12348;SDS011;5974;42.710;27.258;2023-04-01T14:00:42;15.60;;;6.90;;
12348;SDS011;5974;42.710;27.258;2023-04-01T14:03:27;18.57;;;7.10;;
12348;SDS011;5974;42.710;27.258;2023-04-01T14:08:55;18.77;;;6.30;;
12348;SDS011;5974;42.710;27.258;2023-04-01T14:11:43;19.87;;;6.80;;
12348;SDS011;5974;42.710;27.258;2023-04-01T14:14:19;22.10;;;9.33;;
12348;SDS011;5974;42.710;27.258;2023-04-01T14:16:55;19.67;;;6.00;;
12348;SDS011;5974;42.710;27.258;2023-04-01T14:19:34;19.87;;;6.60;;
12348;SDS011;5974;42.710;27.258;2023-04-01T14:22:18;17.67;;;7.20;;
12348;SDS011;5974;42.710;27.258;2023-04-01T14:24:55;22.83;;;7.13;;
12348;SDS011;5974;42.710;27.258;2023-04-01T14:27:38;14.33;;;6.00;;
12348;SDS011;5974;42.710;27.258;2023-04-01T14:30:20;16.27;;;6.83;;
12348;SDS011;5974;42.710;27.258;2023-04-01T14:33:02;20.17;;;6.50;;
12348;SDS011;5974;42.710;27.258;2023-04-01T14:35:41;16.73;;;6.33;;
12348;SDS011;5974;42.710;27.258;2023-04-01T14:38:23;19.33;;;6.73;;
12348;SDS011;5974;42.710;27.258;2023-04-01T14:41:01;21.43;;;9.90;;
12348;SDS011;5974;42.710;27.258;2023-04-01T14:44:02;22.70;;;6.70;;
12348;SDS011;5974;42.710;27.258;2023-04-01T14:46:58;21.10;;;5.90;;
12348;SDS011;5974;42.710;27.258;2023-04-01T14:49:46;22.37;;;5.30;;
12348;SDS011;5974;42.710;27.258;2023-04-01T14:52:16;16.30;;;5.63;;
12348;SDS011;5974;42.710;27.258;2023-04-01T14:54:53;19.93;;;9.67;;
12348;SDS011;5974;42.710;27.258;2023-04-01T14:57:23;16.37;;;4.73;;
12348;SDS011;5974;42.710;27.258;2023-04-01T14:59:53;21.33;;;5.13;;
12348;SDS011;5974;42.710;27.258;2023-04-01T15:02:38;18.27;;;5.23;;
12348;SDS011;5974;42.710;27.258;2023-04-01T15:05:15;19.07;;;5.07;;
12348;SDS011;5974;42.710;27.258;2023-04-01T15:07:58;27.40;;;6.93;;
12348;SDS011;5974;42.710;27.258;2023-04-01T15:13:44;21.07;;;5.57;;
12348;SDS011;5974;42.710;27.258;2023-04-01T15:16:33;19.20;;;5.67;;
12348;SDS011;5974;42.710;27.258;2023-04-01T15:19:10;21.57;;;6.10;;
12348;SDS011;5974;42.710;27.258;2023-04-01T15:21:50;26.90;;;7.10;;
12348;SDS011;5974;42.710;27.258;2023-04-01T15:24:30;22.93;;;7.77;;
12348;SDS011;5974;42.710;27.258;2023-04-01T15:27:25;16.83;;;6.27;;
12348;SDS011;5974;42.710;27.258;2023-04-01T15:30:08;28.60;;;6.80;;
12348;SDS011;5974;42.710;27.258;2023-04-01T15:32:52;36.67;;;12.67;;
12348;SDS011;5974;42.710;27.258;2023-04-01T15:35:31;30.07;;;10.03;;
12348;SDS011;5974;42.710;27.258;2023-04-01T15:38:06;47.33;;;12.30;;
12348;SDS011;5974;42.710;27.258;2023-04-01T15:40:43;23.33;;;9.07;;
12348;SDS011;5974;42.710;27.258;2023-04-01T15:43:20;26.30;;;8.73;;
12348;SDS011;5974;42.710;27.258;2023-04-01T15:45:58;31.17;;;12.17;;
12348;SDS011;5974;42.710;27.258;2023-04-01T15:48:44;31.00;;;12.63;;
12348;SDS011;5974;42.710;27.258;2023-04-01T15:51:24;39.20;;;11.40;;
12348;SDS011;5974;42.710;27.258;2023-04-01T15:54:06;30.90;;;13.00;;
12348;SDS011;5974;42.710;27.258;2023-04-01T15:56:51;28.87;;;12.43;;
12348;SDS011;5974;42.710;27.258;2023-04-01T15:59:41;29.13;;;10.63;;
12348;SDS011;5974;42.710;27.258;2023-04-01T16:02:21;26.73;;;10.70;;
12348;SDS011;5974;42.710;27.258;2023-04-01T16:04:58;26.37;;;10.20;;
12348;SDS011;5974;42.710;27.258;2023-04-01T16:10:31;28.83;;;10.83;;
12348;SDS011;5974;42.710;27.258;2023-04-01T16:13:22;31.43;;;10.97;;
12348;SDS011;5974;42.710;27.258;2023-04-01T16:15:57;30.13;;;11.90;;
12348;SDS011;5974;42.710;27.258;2023-04-01T16:18:39;33.10;;;11.57;;
12348;SDS011;5974;42.710;27.258;2023-04-01T16:21:27;24.60;;;9.87;;
12348;SDS011;5974;42.710;27.258;2023-04-01T16:24:08;26.37;;;9.27;;
12348;SDS011;5974;42.710;27.258;2023-04-01T16:26:44;29.67;;;11.17;;
12348;SDS011;5974;42.710;27.258;2023-04-01T16:29:19;28.60;;;11.73;;
12348;SDS011;5974;42.710;27.258;2023-04-01T16:31:55;22.70;;;9.37;;
12348;SDS011;5974;42.710;27.258;2023-04-01T16:34:27;21.70;;;7.73;;
12348;SDS011;5974;42.710;27.258;2023-04-01T16:37:03;20.77;;;8.33;;
12348;SDS011;5974;42.710;27.258;2023-04-01T16:39:41;25.10;;;8.00;;
12348;SDS011;5974;42.710;27.258;2023-04-01T16:42:15;27.00;;;11.53;;
12348;SDS011;5974;42.710;27.258;2023-04-01T16:44:50;28.10;;;9.27;;
12348;SDS011;5974;42.710;27.258;2023-04-01T16:47:22;24.00;;;11.47;;
12348;SDS011;5974;42.710;27.258;2023-04-01T16:49:57;33.43;;;10.57;;
12348;SDS011;5974;42.710;27.258;2023-04-01T16:52:32;33.23;;;12.07;;